sensor_id;sensor_type;location;lat;lon;timestamp;P1;durP1;ratioP1;P2;durP2;ratioP2
22378;SDS011;11357;49.990;7.370;2023-10-31T00:01:49;1.80;;;0.70;;
22378;SDS011;11357;49.990;7.370;2023-10-31T00:04:15;0.90;;;0.70;;
22378;SDS011;11357;49.990;7.370;2023-10-31T00:06:42;2.53;;;0.90;;
22378;SDS011;11357;49.990;7.370;2023-10-31T00:09:08;0.60;;;0.60;;
22378;SDS011;11357;49.990;7.370;2023-10-31T00:11:35;0.73;;;0.70;;
22378;SDS011;11357;49.990;7.370;2023-10-31T00:14:02;0.50;;;0.50;;
22378;SDS011;11357;49.990;7.370;2023-10-31T00:16:28;1.07;;;0.70;;
22378;SDS011;11357;49.990;7.370;2023-10-31T00:18:54;6.07;;;0.87;;
22378;SDS011;11357;49.990;7.370;2023-10-31T00:21:19;0.77;;;0.50;;
22378;SDS011;11357;49.990;7.370;2023-10-31T00:23:46;0.80;;;0.70;;
22378;SDS011;11357;49.990;7.370;2023-10-31T00:26:12;0.77;;;0.53;;
22378;SDS011;11357;49.990;7.370;2023-10-31T00:28:37;1.00;;;0.70;;
22378;SDS011;11357;49.990;7.370;2023-10-31T00:31:03;2.97;;;0.77;;
22378;SDS011;11357;49.990;7.370;2023-10-31T00:33:30;2.10;;;0.90;;
22378;SDS011;11357;49.990;7.370;2023-10-31T00:35:55;2.53;;;0.80;;
22378;SDS011;11357;49.990;7.370;2023-10-31T00:38:21;2.13;;;0.70;;
22378;SDS011;11357;49.990;7.370;2023-10-31T00:40:47;1.30;;;0.73;;
22378;SDS011;11357;49.990;7.370;2023-10-31T00:43:12;3.80;;;1.10;;
22378;SDS011;11357;49.990;7.370;2023-10-31T00:45:38;1.53;;;0.70;;
22378;SDS011;11357;49.990;7.370;2023-10-31T00:48:04;1.13;;;0.70;;
22378;SDS011;11357;49.990;7.370;2023-10-31T00:50:29;2.97;;;0.80;;
22378;SDS011;11357;49.990;7.370;2023-10-31T00:52:55;1.30;;;0.87;;
22378;SDS011;11357;49.990;7.370;2023-10-31T00:55:21;1.73;;;0.90;;
22378;SDS011;11357;49.990;7.370;2023-10-31T00:57:46;0.90;;;0.80;;
22378;SDS011;11357;49.990;7.370;2023-10-31T01:00:12;2.10;;;1.00;;
22378;SDS011;11357;49.990;7.370;2023-10-31T01:02:38;1.63;;;0.90;;
22378;SDS011;11357;49.990;7.370;2023-10-31T01:05:04;1.63;;;0.70;;
22378;SDS011;11357;49.990;7.370;2023-10-31T01:07:29;2.27;;;1.13;;
22378;SDS011;11357;49.990;7.370;2023-10-31T01:09:55;2.70;;;1.10;;
22378;SDS011;11357;49.990;7.370;2023-10-31T01:12:21;1.87;;;1.10;;
22378;SDS011;11357;49.990;7.370;2023-10-31T01:14:47;2.83;;;1.00;;
22378;SDS011;11357;49.990;7.370;2023-10-31T01:17:12;1.10;;;1.00;;
22378;SDS011;11357;49.990;7.370;2023-10-31T01:19:38;1.20;;;1.00;;
22378;SDS011;11357;49.990;7.370;2023-10-31T01:22:04;2.07;;;1.00;;
22378;SDS011;11357;49.990;7.370;2023-10-31T01:24:29;4.77;;;0.90;;
22378;SDS011;11357;49.990;7.370;2023-10-31T01:26:55;1.50;;;0.87;;
22378;SDS011;11357;49.990;7.370;2023-10-31T01:29:20;2.77;;;1.37;;
22378;SDS011;11357;49.990;7.370;2023-10-31T01:31:46;1.10;;;0.90;;
22378;SDS011;11357;49.990;7.370;2023-10-31T01:34:12;2.37;;;1.03;;
22378;SDS011;11357;49.990;7.370;2023-10-31T01:36:37;1.13;;;1.03;;
22378;SDS011;11357;49.990;7.370;2023-10-31T01:39:03;3.80;;;1.20;;
22378;SDS011;11357;49.990;7.370;2023-10-31T01:41:29;2.03;;;1.17;;
22378;SDS011;11357;49.990;7.370;2023-10-31T01:43:54;2.50;;;1.10;;
22378;SDS011;11357;49.990;7.370;2023-10-31T01:46:20;3.83;;;1.17;;
22378;SDS011;11357;49.990;7.370;2023-10-31T01:48:45;3.77;;;1.50;;
22378;SDS011;11357;49.990;7.370;2023-10-31T01:51:11;2.53;;;1.57;;
22378;SDS011;11357;49.990;7.370;2023-10-31T01:53:37;5.57;;;1.43;;
22378;SDS011;11357;49.990;7.370;2023-10-31T01:56:03;1.50;;;1.40;;
22378;SDS011;11357;49.990;7.370;2023-10-31T01:58:34;2.60;;;1.87;;
22378;SDS011;11357;49.990;7.370;2023-10-31T02:01:01;5.10;;;1.87;;
22378;SDS011;11357;49.990;7.370;2023-10-31T02:03:28;2.70;;;1.70;;
22378;SDS011;11357;49.990;7.370;2023-10-31T02:05:54;2.43;;;1.90;;
22378;SDS011;11357;49.990;7.370;2023-10-31T02:08:20;2.90;;;1.60;;
22378;SDS011;11357;49.990;7.370;2023-10-31T02:10:46;6.47;;;1.97;;
22378;SDS011;11357;49.990;7.370;2023-10-31T02:13:12;3.60;;;1.90;;
22378;SDS011;11357;49.990;7.370;2023-10-31T02:15:39;2.70;;;1.77;;
22378;SDS011;11357;49.990;7.370;2023-10-31T02:18:05;5.80;;;1.80;;
22378;SDS011;11357;49.990;7.370;2023-10-31T02:20:31;3.57;;;1.63;;
22378;SDS011;11357;49.990;7.370;2023-10-31T02:22:56;4.00;;;2.00;;
22378;SDS011;11357;49.990;7.370;2023-10-31T02:25:22;2.17;;;1.80;;
22378;SDS011;11357;49.990;7.370;2023-10-31T02:27:48;2.37;;;1.70;;
22378;SDS011;11357;49.990;7.370;2023-10-31T02:30:13;5.03;;;1.60;;
22378;SDS011;11357;49.990;7.370;2023-10-31T02:32:39;9.53;;;1.90;;
22378;SDS011;11357;49.990;7.370;2023-10-31T02:35:06;3.03;;;1.90;;
22378;SDS011;11357;49.990;7.370;2023-10-31T02:37:32;5.80;;;1.80;;
22378;SDS011;11357;49.990;7.370;2023-10-31T02:39:58;4.93;;;1.83;;
22378;SDS011;11357;49.990;7.370;2023-10-31T02:42:24;2.77;;;1.53;;
22378;SDS011;11357;49.990;7.370;2023-10-31T02:44:50;2.43;;;1.50;;
22378;SDS011;11357;49.990;7.370;2023-10-31T02:47:16;4.47;;;1.47;;
22378;SDS011;11357;49.990;7.370;2023-10-31T02:49:42;2.43;;;1.70;;
22378;SDS011;11357;49.990;7.370;2023-10-31T02:52:07;4.50;;;1.70;;
22378;SDS011;11357;49.990;7.370;2023-10-31T02:54:33;3.40;;;1.60;;
22378;SDS011;11357;49.990;7.370;2023-10-31T02:56:59;3.93;;;1.90;;
22378;SDS011;11357;49.990;7.370;2023-10-31T02:59:24;3.10;;;1.60;;
22378;SDS011;11357;49.990;7.370;2023-10-31T03:01:50;3.30;;;1.50;;
22378;SDS011;11357;49.990;7.370;2023-10-31T03:04:17;2.07;;;1.60;;
22378;SDS011;11357;49.990;7.370;2023-10-31T03:06:42;1.77;;;1.10;;
22378;SDS011;11357;49.990;7.370;2023-10-31T03:09:08;1.43;;;1.17;;
22378;SDS011;11357;49.990;7.370;2023-10-31T03:11:34;2.70;;;1.30;;
22378;SDS011;11357;49.990;7.370;2023-10-31T03:14:00;3.00;;;1.60;;
22378;SDS011;11357;49.990;7.370;2023-10-31T03:16:25;1.83;;;1.43;;
22378;SDS011;11357;49.990;7.370;2023-10-31T03:18:51;3.57;;;1.60;;
22378;SDS011;11357;49.990;7.370;2023-10-31T03:21:17;3.97;;;1.87;;
22378;SDS011;11357;49.990;7.370;2023-10-31T03:23:47;2.57;;;1.83;;
22378;SDS011;11357;49.990;7.370;2023-10-31T03:26:14;2.00;;;1.63;;
22378;SDS011;11357;49.990;7.370;2023-10-31T03:28:40;2.60;;;1.60;;
22378;SDS011;11357;49.990;7.370;2023-10-31T03:31:08;2.93;;;1.77;;
22378;SDS011;11357;49.990;7.370;2023-10-31T03:36:03;2.10;;;1.87;;
22378;SDS011;11357;49.990;7.370;2023-10-31T03:38:30;5.43;;;2.37;;
22378;SDS011;11357;49.990;7.370;2023-10-31T03:40:56;2.60;;;1.97;;
22378;SDS011;11357;49.990;7.370;2023-10-31T03:43:22;2.60;;;1.90;;
22378;SDS011;11357;49.990;7.370;2023-10-31T03:45:47;4.60;;;1.70;;
22378;SDS011;11357;49.990;7.370;2023-10-31T03:48:14;3.47;;;1.93;;
22378;SDS011;11357;49.990;7.370;2023-10-31T03:50:42;6.17;;;1.57;;
22378;SDS011;11357;49.990;7.370;2023-10-31T03:53:08;2.97;;;1.43;;
22378;SDS011;11357;49.990;7.370;2023-10-31T03:55:34;4.80;;;1.40;;
22378;SDS011;11357;49.990;7.370;2023-10-31T03:57:59;2.43;;;1.90;;
22378;SDS011;11357;49.990;7.370;2023-10-31T04:00:25;2.50;;;1.63;;
22378;SDS011;11357;49.990;7.370;2023-10-31T04:02:51;2.70;;;1.70;;
22378;SDS011;11357;49.990;7.370;2023-10-31T04:05:16;3.23;;;1.90;;
22378;SDS011;11357;49.990;7.370;2023-10-31T04:07:43;1.70;;;1.60;;
22378;SDS011;11357;49.990;7.370;2023-10-31T04:10:10;3.93;;;1.77;;
22378;SDS011;11357;49.990;7.370;2023-10-31T04:12:36;2.67;;;2.10;;
22378;SDS011;11357;49.990;7.370;2023-10-31T04:15:02;3.77;;;2.10;;
22378;SDS011;11357;49.990;7.370;2023-10-31T04:17:28;3.63;;;2.10;;
22378;SDS011;11357;49.990;7.370;2023-10-31T04:19:54;3.40;;;2.10;;
22378;SDS011;11357;49.990;7.370;2023-10-31T04:22:20;2.17;;;1.77;;
22378;SDS011;11357;49.990;7.370;2023-10-31T04:24:45;2.10;;;1.60;;
22378;SDS011;11357;49.990;7.370;2023-10-31T04:27:11;5.03;;;1.60;;
22378;SDS011;11357;49.990;7.370;2023-10-31T04:29:36;4.03;;;1.83;;
22378;SDS011;11357;49.990;7.370;2023-10-31T04:32:02;3.57;;;1.97;;
22378;SDS011;11357;49.990;7.370;2023-10-31T04:34:28;2.30;;;1.80;;
22378;SDS011;11357;49.990;7.370;2023-10-31T04:36:54;2.00;;;1.80;;
22378;SDS011;11357;49.990;7.370;2023-10-31T04:39:19;3.60;;;1.90;;
22378;SDS011;11357;49.990;7.370;2023-10-31T04:41:45;4.07;;;2.47;;
22378;SDS011;11357;49.990;7.370;2023-10-31T04:44:11;2.77;;;1.70;;
22378;SDS011;11357;49.990;7.370;2023-10-31T04:46:37;1.97;;;1.70;;
22378;SDS011;11357;49.990;7.370;2023-10-31T04:49:02;4.33;;;1.90;;
22378;SDS011;11357;49.990;7.370;2023-10-31T04:51:32;4.40;;;2.10;;
22378;SDS011;11357;49.990;7.370;2023-10-31T04:53:58;3.80;;;2.03;;
22378;SDS011;11357;49.990;7.370;2023-10-31T04:56:24;2.23;;;1.90;;
22378;SDS011;11357;49.990;7.370;2023-10-31T04:58:50;2.73;;;1.90;;
22378;SDS011;11357;49.990;7.370;2023-10-31T05:01:15;2.47;;;2.10;;
22378;SDS011;11357;49.990;7.370;2023-10-31T05:03:41;9.53;;;2.60;;
22378;SDS011;11357;49.990;7.370;2023-10-31T05:06:07;2.90;;;2.03;;
22378;SDS011;11357;49.990;7.370;2023-10-31T05:08:32;3.37;;;2.23;;
22378;SDS011;11357;49.990;7.370;2023-10-31T05:10:58;4.63;;;2.30;;
22378;SDS011;11357;49.990;7.370;2023-10-31T05:13:24;3.90;;;2.37;;
22378;SDS011;11357;49.990;7.370;2023-10-31T05:15:50;4.27;;;2.00;;
22378;SDS011;11357;49.990;7.370;2023-10-31T05:18:16;3.50;;;2.20;;
22378;SDS011;11357;49.990;7.370;2023-10-31T05:20:43;2.43;;;1.97;;
22378;SDS011;11357;49.990;7.370;2023-10-31T05:23:08;6.37;;;2.30;;
22378;SDS011;11357;49.990;7.370;2023-10-31T05:25:34;4.07;;;2.20;;
22378;SDS011;11357;49.990;7.370;2023-10-31T05:28:00;2.73;;;2.17;;
22378;SDS011;11357;49.990;7.370;2023-10-31T05:30:26;4.77;;;3.00;;
22378;SDS011;11357;49.990;7.370;2023-10-31T05:32:52;2.67;;;2.10;;
22378;SDS011;11357;49.990;7.370;2023-10-31T05:35:18;4.30;;;2.20;;
22378;SDS011;11357;49.990;7.370;2023-10-31T05:37:45;4.50;;;2.20;;
22378;SDS011;11357;49.990;7.370;2023-10-31T05:40:11;3.70;;;2.17;;
22378;SDS011;11357;49.990;7.370;2023-10-31T05:42:38;3.87;;;1.90;;
22378;SDS011;11357;49.990;7.370;2023-10-31T05:45:04;3.57;;;1.97;;
22378;SDS011;11357;49.990;7.370;2023-10-31T05:47:30;7.20;;;2.40;;
22378;SDS011;11357;49.990;7.370;2023-10-31T05:49:56;3.23;;;1.93;;
22378;SDS011;11357;49.990;7.370;2023-10-31T05:52:22;3.83;;;1.80;;
22378;SDS011;11357;49.990;7.370;2023-10-31T05:54:48;3.60;;;2.03;;
22378;SDS011;11357;49.990;7.370;2023-10-31T05:57:14;2.23;;;1.67;;
22378;SDS011;11357;49.990;7.370;2023-10-31T05:59:39;3.53;;;1.90;;
22378;SDS011;11357;49.990;7.370;2023-10-31T06:02:05;3.97;;;2.00;;
22378;SDS011;11357;49.990;7.370;2023-10-31T06:04:30;8.17;;;2.40;;
22378;SDS011;11357;49.990;7.370;2023-10-31T06:06:56;3.57;;;2.07;;
22378;SDS011;11357;49.990;7.370;2023-10-31T06:09:22;5.07;;;2.07;;
22378;SDS011;11357;49.990;7.370;2023-10-31T06:11:47;5.20;;;1.87;;
22378;SDS011;11357;49.990;7.370;2023-10-31T06:14:13;5.83;;;1.90;;
22378;SDS011;11357;49.990;7.370;2023-10-31T06:16:42;3.50;;;2.20;;
22378;SDS011;11357;49.990;7.370;2023-10-31T06:19:08;3.93;;;1.97;;
22378;SDS011;11357;49.990;7.370;2023-10-31T06:21:34;5.77;;;1.90;;
22378;SDS011;11357;49.990;7.370;2023-10-31T06:24:00;2.77;;;1.90;;
22378;SDS011;11357;49.990;7.370;2023-10-31T06:26:26;5.87;;;2.77;;
22378;SDS011;11357;49.990;7.370;2023-10-31T06:28:52;3.40;;;2.20;;
22378;SDS011;11357;49.990;7.370;2023-10-31T06:31:17;5.20;;;2.67;;
22378;SDS011;11357;49.990;7.370;2023-10-31T06:33:43;4.47;;;1.83;;
22378;SDS011;11357;49.990;7.370;2023-10-31T06:36:08;5.93;;;2.10;;
22378;SDS011;11357;49.990;7.370;2023-10-31T06:38:34;4.87;;;2.23;;
22378;SDS011;11357;49.990;7.370;2023-10-31T06:41:00;9.03;;;2.93;;
22378;SDS011;11357;49.990;7.370;2023-10-31T06:43:25;3.17;;;2.43;;
22378;SDS011;11357;49.990;7.370;2023-10-31T06:45:52;4.63;;;2.87;;
22378;SDS011;11357;49.990;7.370;2023-10-31T06:48:18;4.10;;;2.70;;
22378;SDS011;11357;49.990;7.370;2023-10-31T06:50:43;4.30;;;2.40;;
22378;SDS011;11357;49.990;7.370;2023-10-31T06:53:09;5.13;;;2.50;;
22378;SDS011;11357;49.990;7.370;2023-10-31T06:55:35;7.63;;;2.50;;
22378;SDS011;11357;49.990;7.370;2023-10-31T06:58:01;9.00;;;2.17;;
22378;SDS011;11357;49.990;7.370;2023-10-31T07:00:27;3.83;;;2.00;;
22378;SDS011;11357;49.990;7.370;2023-10-31T07:02:53;5.13;;;2.40;;
22378;SDS011;11357;49.990;7.370;2023-10-31T07:05:18;2.90;;;2.13;;
22378;SDS011;11357;49.990;7.370;2023-10-31T07:07:45;4.07;;;2.50;;
22378;SDS011;11357;49.990;7.370;2023-10-31T07:10:12;4.83;;;2.20;;
22378;SDS011;11357;49.990;7.370;2023-10-31T07:12:37;2.73;;;2.00;;
22378;SDS011;11357;49.990;7.370;2023-10-31T07:15:03;5.17;;;1.90;;
22378;SDS011;11357;49.990;7.370;2023-10-31T07:17:29;2.30;;;2.10;;
22378;SDS011;11357;49.990;7.370;2023-10-31T07:19:55;5.10;;;2.43;;
22378;SDS011;11357;49.990;7.370;2023-10-31T07:22:21;3.63;;;2.23;;
22378;SDS011;11357;49.990;7.370;2023-10-31T07:24:50;12.00;;;6.17;;
22378;SDS011;11357;49.990;7.370;2023-10-31T07:27:17;21.73;;;10.43;;
22378;SDS011;11357;49.990;7.370;2023-10-31T07:29:43;7.90;;;4.73;;
22378;SDS011;11357;49.990;7.370;2023-10-31T07:32:09;4.10;;;3.17;;
22378;SDS011;11357;49.990;7.370;2023-10-31T07:34:35;3.63;;;2.57;;
22378;SDS011;11357;49.990;7.370;2023-10-31T07:37:00;4.97;;;2.60;;
22378;SDS011;11357;49.990;7.370;2023-10-31T07:39:26;2.93;;;2.10;;
22378;SDS011;11357;49.990;7.370;2023-10-31T07:41:52;5.40;;;2.27;;
22378;SDS011;11357;49.990;7.370;2023-10-31T07:44:17;2.20;;;2.00;;
22378;SDS011;11357;49.990;7.370;2023-10-31T07:46:43;3.00;;;1.93;;
22378;SDS011;11357;49.990;7.370;2023-10-31T07:49:09;3.80;;;1.97;;
22378;SDS011;11357;49.990;7.370;2023-10-31T07:51:34;5.47;;;2.23;;
22378;SDS011;11357;49.990;7.370;2023-10-31T07:54:00;3.43;;;1.90;;
22378;SDS011;11357;49.990;7.370;2023-10-31T07:56:26;2.63;;;1.93;;
22378;SDS011;11357;49.990;7.370;2023-10-31T07:58:52;4.53;;;2.10;;
22378;SDS011;11357;49.990;7.370;2023-10-31T08:01:18;4.07;;;1.73;;
22378;SDS011;11357;49.990;7.370;2023-10-31T08:03:45;3.93;;;1.87;;
22378;SDS011;11357;49.990;7.370;2023-10-31T08:06:12;3.80;;;1.90;;
22378;SDS011;11357;49.990;7.370;2023-10-31T08:08:37;5.33;;;2.10;;
22378;SDS011;11357;49.990;7.370;2023-10-31T08:11:03;6.03;;;2.17;;
22378;SDS011;11357;49.990;7.370;2023-10-31T08:13:32;3.13;;;2.13;;
22378;SDS011;11357;49.990;7.370;2023-10-31T08:15:58;4.13;;;1.60;;
22378;SDS011;11357;49.990;7.370;2023-10-31T08:18:23;4.23;;;2.00;;
22378;SDS011;11357;49.990;7.370;2023-10-31T08:20:49;2.10;;;1.63;;
22378;SDS011;11357;49.990;7.370;2023-10-31T08:23:16;3.30;;;1.90;;
22378;SDS011;11357;49.990;7.370;2023-10-31T08:25:42;4.90;;;1.70;;
22378;SDS011;11357;49.990;7.370;2023-10-31T08:28:08;5.97;;;1.80;;
22378;SDS011;11357;49.990;7.370;2023-10-31T08:30:34;4.33;;;1.60;;
22378;SDS011;11357;49.990;7.370;2023-10-31T08:33:00;1.93;;;1.50;;
22378;SDS011;11357;49.990;7.370;2023-10-31T08:35:26;3.10;;;1.17;;
22378;SDS011;11357;49.990;7.370;2023-10-31T08:37:52;4.37;;;1.27;;
22378;SDS011;11357;49.990;7.370;2023-10-31T08:40:18;3.13;;;1.30;;
22378;SDS011;11357;49.990;7.370;2023-10-31T08:42:44;1.63;;;1.40;;
22378;SDS011;11357;49.990;7.370;2023-10-31T08:45:10;3.93;;;1.30;;
22378;SDS011;11357;49.990;7.370;2023-10-31T08:47:36;2.80;;;1.63;;
22378;SDS011;11357;49.990;7.370;2023-10-31T08:50:02;3.27;;;1.20;;
22378;SDS011;11357;49.990;7.370;2023-10-31T08:52:28;4.20;;;1.13;;
22378;SDS011;11357;49.990;7.370;2023-10-31T08:54:53;2.27;;;1.00;;
22378;SDS011;11357;49.990;7.370;2023-10-31T08:57:19;4.43;;;1.37;;
22378;SDS011;11357;49.990;7.370;2023-10-31T08:59:44;5.03;;;1.27;;
22378;SDS011;11357;49.990;7.370;2023-10-31T09:02:10;2.10;;;0.90;;
22378;SDS011;11357;49.990;7.370;2023-10-31T09:04:36;3.23;;;0.90;;
22378;SDS011;11357;49.990;7.370;2023-10-31T09:07:01;6.40;;;1.00;;
22378;SDS011;11357;49.990;7.370;2023-10-31T09:09:27;2.67;;;0.90;;
22378;SDS011;11357;49.990;7.370;2023-10-31T09:11:53;3.07;;;1.20;;
22378;SDS011;11357;49.990;7.370;2023-10-31T09:14:18;1.30;;;1.00;;
22378;SDS011;11357;49.990;7.370;2023-10-31T09:16:44;1.10;;;0.87;;
22378;SDS011;11357;49.990;7.370;2023-10-31T09:19:10;2.10;;;0.90;;
22378;SDS011;11357;49.990;7.370;2023-10-31T09:21:36;6.10;;;0.80;;
22378;SDS011;11357;49.990;7.370;2023-10-31T09:24:02;4.60;;;1.13;;
22378;SDS011;11357;49.990;7.370;2023-10-31T09:26:28;2.70;;;1.20;;
22378;SDS011;11357;49.990;7.370;2023-10-31T09:28:53;3.50;;;1.07;;
22378;SDS011;11357;49.990;7.370;2023-10-31T09:31:20;3.90;;;0.93;;
22378;SDS011;11357;49.990;7.370;2023-10-31T09:33:45;2.40;;;0.80;;
22378;SDS011;11357;49.990;7.370;2023-10-31T09:36:11;5.20;;;0.90;;
22378;SDS011;11357;49.990;7.370;2023-10-31T09:38:38;1.90;;;1.20;;
22378;SDS011;11357;49.990;7.370;2023-10-31T09:41:04;5.90;;;1.30;;
22378;SDS011;11357;49.990;7.370;2023-10-31T09:43:30;5.43;;;1.20;;
22378;SDS011;11357;49.990;7.370;2023-10-31T09:45:56;3.30;;;1.03;;
22378;SDS011;11357;49.990;7.370;2023-10-31T09:48:22;3.13;;;1.13;;
22378;SDS011;11357;49.990;7.370;2023-10-31T09:50:48;3.90;;;0.90;;
22378;SDS011;11357;49.990;7.370;2023-10-31T09:53:15;3.63;;;0.60;;
22378;SDS011;11357;49.990;7.370;2023-10-31T09:55:45;5.47;;;0.77;;
22378;SDS011;11357;49.990;7.370;2023-10-31T09:58:11;4.47;;;1.40;;
22378;SDS011;11357;49.990;7.370;2023-10-31T10:00:37;4.43;;;1.10;;
22378;SDS011;11357;49.990;7.370;2023-10-31T10:03:06;3.67;;;1.00;;
22378;SDS011;11357;49.990;7.370;2023-10-31T10:05:34;3.17;;;1.23;;
22378;SDS011;11357;49.990;7.370;2023-10-31T10:08:01;4.20;;;1.10;;
22378;SDS011;11357;49.990;7.370;2023-10-31T10:10:28;4.30;;;1.10;;
22378;SDS011;11357;49.990;7.370;2023-10-31T10:12:55;5.63;;;1.20;;
22378;SDS011;11357;49.990;7.370;2023-10-31T10:15:21;4.37;;;1.00;;
22378;SDS011;11357;49.990;7.370;2023-10-31T10:17:52;5.17;;;1.00;;
22378;SDS011;11357;49.990;7.370;2023-10-31T10:20:18;8.97;;;1.37;;
22378;SDS011;11357;49.990;7.370;2023-10-31T10:22:44;3.23;;;0.90;;
22378;SDS011;11357;49.990;7.370;2023-10-31T10:25:11;5.87;;;1.27;;
22378;SDS011;11357;49.990;7.370;2023-10-31T10:27:46;3.33;;;0.90;;
22378;SDS011;11357;49.990;7.370;2023-10-31T10:30:13;8.97;;;1.00;;
22378;SDS011;11357;49.990;7.370;2023-10-31T10:32:39;3.60;;;1.27;;
22378;SDS011;11357;49.990;7.370;2023-10-31T10:35:06;3.73;;;1.30;;
22378;SDS011;11357;49.990;7.370;2023-10-31T10:37:33;4.53;;;1.50;;
22378;SDS011;11357;49.990;7.370;2023-10-31T10:40:03;6.57;;;1.63;;
22378;SDS011;11357;49.990;7.370;2023-10-31T10:42:32;5.57;;;1.17;;
22378;SDS011;11357;49.990;7.370;2023-10-31T10:45:03;11.07;;;1.60;;
22378;SDS011;11357;49.990;7.370;2023-10-31T10:47:33;10.77;;;1.17;;
22378;SDS011;11357;49.990;7.370;2023-10-31T10:50:03;5.83;;;1.23;;
22378;SDS011;11357;49.990;7.370;2023-10-31T10:52:35;5.33;;;1.00;;
22378;SDS011;11357;49.990;7.370;2023-10-31T10:55:13;2.93;;;0.90;;
22378;SDS011;11357;49.990;7.370;2023-10-31T11:00:16;5.93;;;1.30;;
22378;SDS011;11357;49.990;7.370;2023-10-31T11:02:44;6.77;;;1.17;;
22378;SDS011;11357;49.990;7.370;2023-10-31T11:05:11;4.20;;;1.20;;
22378;SDS011;11357;49.990;7.370;2023-10-31T11:07:39;7.30;;;1.30;;
22378;SDS011;11357;49.990;7.370;2023-10-31T11:10:05;7.73;;;1.37;;
22378;SDS011;11357;49.990;7.370;2023-10-31T11:12:33;5.67;;;1.10;;
22378;SDS011;11357;49.990;7.370;2023-10-31T11:14:58;6.40;;;1.00;;
22378;SDS011;11357;49.990;7.370;2023-10-31T11:17:29;6.73;;;1.17;;
22378;SDS011;11357;49.990;7.370;2023-10-31T11:19:59;6.80;;;1.17;;
22378;SDS011;11357;49.990;7.370;2023-10-31T11:22:25;2.70;;;1.40;;
22378;SDS011;11357;49.990;7.370;2023-10-31T11:25:18;5.70;;;1.03;;
22378;SDS011;11357;49.990;7.370;2023-10-31T11:27:51;4.20;;;1.30;;
22378;SDS011;11357;49.990;7.370;2023-10-31T11:30:30;6.10;;;1.00;;
22378;SDS011;11357;49.990;7.370;2023-10-31T11:32:59;7.83;;;1.67;;
22378;SDS011;11357;49.990;7.370;2023-10-31T11:35:26;5.87;;;1.10;;
22378;SDS011;11357;49.990;7.370;2023-10-31T11:38:04;6.03;;;1.10;;
22378;SDS011;11357;49.990;7.370;2023-10-31T11:40:37;7.30;;;1.10;;
22378;SDS011;11357;49.990;7.370;2023-10-31T11:43:11;8.27;;;1.43;;
22378;SDS011;11357;49.990;7.370;2023-10-31T11:48:09;8.50;;;2.23;;
22378;SDS011;11357;49.990;7.370;2023-10-31T11:50:35;6.83;;;1.20;;
22378;SDS011;11357;49.990;7.370;2023-10-31T11:55:31;3.03;;;1.00;;
22378;SDS011;11357;49.990;7.370;2023-10-31T12:00:48;5.53;;;1.87;;
22378;SDS011;11357;49.990;7.370;2023-10-31T12:03:19;5.67;;;1.93;;
22378;SDS011;11357;49.990;7.370;2023-10-31T12:05:55;5.53;;;1.00;;
22378;SDS011;11357;49.990;7.370;2023-10-31T12:08:44;6.87;;;1.00;;
22378;SDS011;11357;49.990;7.370;2023-10-31T12:11:10;3.60;;;1.27;;
22378;SDS011;11357;49.990;7.370;2023-10-31T12:16:25;5.13;;;1.40;;
22378;SDS011;11357;49.990;7.370;2023-10-31T12:18:56;5.50;;;1.70;;
22378;SDS011;11357;49.990;7.370;2023-10-31T12:21:41;4.90;;;1.03;;
22378;SDS011;11357;49.990;7.370;2023-10-31T12:24:09;9.33;;;2.40;;
22378;SDS011;11357;49.990;7.370;2023-10-31T12:26:37;3.77;;;2.27;;
22378;SDS011;11357;49.990;7.370;2023-10-31T12:29:09;6.40;;;1.60;;
22378;SDS011;11357;49.990;7.370;2023-10-31T12:31:38;7.97;;;1.63;;
22378;SDS011;11357;49.990;7.370;2023-10-31T12:34:05;10.53;;;4.03;;
22378;SDS011;11357;49.990;7.370;2023-10-31T12:36:31;11.20;;;1.60;;
22378;SDS011;11357;49.990;7.370;2023-10-31T12:38:58;3.37;;;1.37;;
22378;SDS011;11357;49.990;7.370;2023-10-31T12:41:24;2.57;;;1.27;;
22378;SDS011;11357;49.990;7.370;2023-10-31T12:43:50;5.27;;;1.50;;
22378;SDS011;11357;49.990;7.370;2023-10-31T12:46:29;7.13;;;2.80;;
22378;SDS011;11357;49.990;7.370;2023-10-31T12:48:56;8.70;;;1.63;;
22378;SDS011;11357;49.990;7.370;2023-10-31T12:51:22;4.30;;;2.10;;
22378;SDS011;11357;49.990;7.370;2023-10-31T12:53:48;4.20;;;1.40;;
22378;SDS011;11357;49.990;7.370;2023-10-31T12:58:59;2.73;;;1.10;;
22378;SDS011;11357;49.990;7.370;2023-10-31T13:01:25;3.93;;;1.20;;
22378;SDS011;11357;49.990;7.370;2023-10-31T13:03:51;3.63;;;1.10;;
22378;SDS011;11357;49.990;7.370;2023-10-31T13:06:17;2.77;;;1.10;;
22378;SDS011;11357;49.990;7.370;2023-10-31T13:08:45;6.50;;;1.20;;
22378;SDS011;11357;49.990;7.370;2023-10-31T13:11:11;4.83;;;1.10;;
22378;SDS011;11357;49.990;7.370;2023-10-31T13:13:38;4.57;;;0.80;;
22378;SDS011;11357;49.990;7.370;2023-10-31T13:16:04;6.07;;;1.23;;
22378;SDS011;11357;49.990;7.370;2023-10-31T13:18:30;6.63;;;3.40;;
22378;SDS011;11357;49.990;7.370;2023-10-31T13:20:55;7.03;;;0.90;;
22378;SDS011;11357;49.990;7.370;2023-10-31T13:23:21;6.83;;;0.80;;
22378;SDS011;11357;49.990;7.370;2023-10-31T13:25:47;3.37;;;1.13;;
22378;SDS011;11357;49.990;7.370;2023-10-31T13:28:13;3.87;;;1.53;;
22378;SDS011;11357;49.990;7.370;2023-10-31T13:30:39;13.13;;;5.03;;
22378;SDS011;11357;49.990;7.370;2023-10-31T13:33:05;3.13;;;1.67;;
22378;SDS011;11357;49.990;7.370;2023-10-31T13:35:32;4.90;;;1.60;;
22378;SDS011;11357;49.990;7.370;2023-10-31T13:37:59;4.07;;;1.20;;
22378;SDS011;11357;49.990;7.370;2023-10-31T13:40:25;6.07;;;2.50;;
22378;SDS011;11357;49.990;7.370;2023-10-31T13:42:51;6.30;;;2.67;;
22378;SDS011;11357;49.990;7.370;2023-10-31T13:45:18;9.10;;;2.47;;
22378;SDS011;11357;49.990;7.370;2023-10-31T13:47:44;5.83;;;1.20;;
22378;SDS011;11357;49.990;7.370;2023-10-31T13:50:09;1.47;;;0.77;;
22378;SDS011;11357;49.990;7.370;2023-10-31T13:52:35;2.83;;;2.30;;
22378;SDS011;11357;49.990;7.370;2023-10-31T13:55:01;2.40;;;1.57;;
22378;SDS011;11357;49.990;7.370;2023-10-31T13:57:26;6.13;;;3.23;;
22378;SDS011;11357;49.990;7.370;2023-10-31T13:59:52;2.73;;;1.27;;
22378;SDS011;11357;49.990;7.370;2023-10-31T14:02:18;17.43;;;5.03;;
22378;SDS011;11357;49.990;7.370;2023-10-31T14:04:44;2.20;;;1.43;;
22378;SDS011;11357;49.990;7.370;2023-10-31T14:07:10;2.57;;;1.30;;
22378;SDS011;11357;49.990;7.370;2023-10-31T14:09:45;4.87;;;1.07;;
22378;SDS011;11357;49.990;7.370;2023-10-31T14:12:11;2.47;;;0.70;;
22378;SDS011;11357;49.990;7.370;2023-10-31T14:14:37;5.23;;;0.60;;
22378;SDS011;11357;49.990;7.370;2023-10-31T14:17:03;1.53;;;0.80;;
22378;SDS011;11357;49.990;7.370;2023-10-31T14:19:30;2.63;;;0.70;;
22378;SDS011;11357;49.990;7.370;2023-10-31T14:21:55;3.30;;;0.73;;
22378;SDS011;11357;49.990;7.370;2023-10-31T14:24:21;5.83;;;1.10;;
22378;SDS011;11357;49.990;7.370;2023-10-31T14:26:47;2.57;;;0.70;;
22378;SDS011;11357;49.990;7.370;2023-10-31T14:29:13;1.80;;;0.70;;
22378;SDS011;11357;49.990;7.370;2023-10-31T14:31:39;7.77;;;1.10;;
22378;SDS011;11357;49.990;7.370;2023-10-31T14:34:06;2.27;;;1.10;;
22378;SDS011;11357;49.990;7.370;2023-10-31T14:36:31;2.03;;;1.10;;
22378;SDS011;11357;49.990;7.370;2023-10-31T14:38:57;2.37;;;0.93;;
22378;SDS011;11357;49.990;7.370;2023-10-31T14:41:23;3.97;;;0.90;;
22378;SDS011;11357;49.990;7.370;2023-10-31T14:43:49;3.53;;;0.70;;
22378;SDS011;11357;49.990;7.370;2023-10-31T14:46:15;1.87;;;0.50;;
22378;SDS011;11357;49.990;7.370;2023-10-31T14:48:41;2.93;;;0.90;;
22378;SDS011;11357;49.990;7.370;2023-10-31T14:51:06;1.50;;;0.63;;
22378;SDS011;11357;49.990;7.370;2023-10-31T14:53:32;2.53;;;0.70;;
22378;SDS011;11357;49.990;7.370;2023-10-31T14:55:58;1.43;;;0.77;;
22378;SDS011;11357;49.990;7.370;2023-10-31T14:58:23;4.80;;;0.87;;
22378;SDS011;11357;49.990;7.370;2023-10-31T15:00:49;3.53;;;0.60;;
22378;SDS011;11357;49.990;7.370;2023-10-31T15:03:16;3.80;;;0.90;;